Beatty, Nevada
Current Conditions -  °F | °C
As of 12:52 PM on Saturday 22 Nov 2014 (Local Time) from KDRA Reporting Station
Clear Clear  
Wind Chill: 63°   Ceiling: Unl
Heat Index: 63°   Visibility: 10mi
Dew Point: 25°   Wind: 17mph
Humidity: 24%   Direction: 250°WSW
Pressure: 29.92"   Gusts: 28mph
Location:  36.91°N, 116.76°W
Report Text: KDRA 222052Z AUTO 25015G24KT 10SM CLR 17/M04 A2992 RMK AO2 SLP111 T01721039 56040 $
Loading
Personal Weather Stations






























Interactive Weather Map New forecast layout! Learn more

10-Day Weather Forecast

Advertisements
Track Severe Weather on mobile